Time;durP1;ratioP1;P1;durP2;ratioP2;P2;SDS_P1;SDS_P2;PMS_P1;PMS_P2;Temp;Humidity;BMP_temperature;BMP_pressure;BME280_temperature;BME280_humidity;BME280_pressure;Samples;Min_cycle;Max_cycle;Signal;HPM_P1;HPM_P2
2023/04/22 00:01:18;;;;;;;;;30.50;26.00;;;;;12.51;44.88;100229.66;5074206;27;45834;-65
2023/04/22 00:03:43;;;;;;;;;32.75;28.25;;;;;12.40;45.44;100216.66;5072669;28;45522;-69
2023/04/22 00:06:10;;;;;;;;;20.25;19.75;;;;;12.34;45.32;100227.28;5060256;28;45348;-65
2023/04/22 00:08:36;;;;;;;;;27.75;27.50;;;;;12.39;45.67;100237.72;5076801;27;46643;-67
2023/04/22 00:11:02;;;;;;;;;25.00;22.00;;;;;12.24;46.16;100231.78;5073731;27;45667;-66
2023/04/22 00:13:28;;;;;;;;;24.75;21.75;;;;;12.22;46.10;100238.81;5076674;27;45401;-71
2023/04/22 00:15:53;;;;;;;;;30.00;27.50;;;;;12.32;45.58;100243.94;5073878;27;45595;-65
2023/04/22 00:18:19;;;;;;;;;31.50;26.75;;;;;12.38;45.63;100246.47;5073814;27;45991;-66
2023/04/22 00:20:45;;;;;;;;;39.00;31.75;;;;;12.35;45.61;100243.88;5077685;27;45176;-65
2023/04/22 00:23:11;;;;;;;;;36.00;28.75;;;;;12.36;45.23;100243.00;5073853;27;45688;-66
2023/04/22 00:25:39;;;;;;;;;30.75;27.75;;;;;12.34;45.34;100239.50;5074636;27;45469;-67
2023/04/22 00:28:05;;;;;;;;;22.75;20.75;;;;;12.20;45.43;100229.22;5066148;27;46065;-66
2023/04/22 00:30:31;;;;;;;;;30.50;26.25;;;;;12.20;46.02;100239.72;5064657;27;45372;-68
2023/04/22 00:32:56;;;;;;;;;26.50;22.75;;;;;12.17;45.95;100230.13;5074638;27;45433;-66
2023/04/22 00:35:22;;;;;;;;;33.75;28.75;;;;;12.25;46.24;100238.75;5074063;27;45414;-64
2023/04/22 00:37:47;;;;;;;;;35.50;28.25;;;;;12.23;46.06;100244.91;5077018;28;45901;-66
2023/04/22 00:40:13;;;;;;;;;33.75;27.25;;;;;12.24;46.42;100237.03;5089856;27;45424;-64
2023/04/22 00:42:40;;;;;;;;;36.00;26.50;;;;;12.13;46.49;100228.41;5090329;27;45878;-65
2023/04/22 00:45:10;;;;;;;;;26.50;23.25;;;;;12.14;46.54;100230.13;5063570;27;45559;-66
2023/04/22 00:47:35;;;;;;;;;26.25;23.50;;;;;12.05;46.48;100222.38;5052753;28;46673;-66
2023/04/22 00:50:01;;;;;;;;;31.50;22.75;;;;;12.05;46.93;100235.50;5060211;27;45526;-67
2023/04/22 00:52:27;;;;;;;;;29.00;26.00;;;;;12.05;46.98;100232.88;5070086;27;46639;-65
2023/04/22 00:54:53;;;;;;;;;28.75;24.50;;;;;12.13;47.00;100238.06;5075326;27;45491;-65
2023/04/22 00:57:19;;;;;;;;;30.50;25.00;;;;;11.90;46.66;100191.94;5055344;27;45627;-67
2023/04/22 00:59:45;;;;;;;;;30.75;25.75;;;;;11.98;46.08;100184.84;5069133;28;45326;-64
2023/04/22 01:02:11;;;;;;;;;34.00;25.00;;;;;12.15;46.36;100210.00;5073750;27;45730;-66
2023/04/22 01:04:37;;;;;;;;;35.75;28.25;;;;;12.15;46.47;100212.63;5074196;28;45363;-68
2023/04/22 01:07:03;;;;;;;;;31.50;28.00;;;;;12.13;46.45;100206.56;5054009;27;45384;-64
2023/04/22 01:09:29;;;;;;;;;24.75;21.25;;;;;12.07;46.31;100184.72;5061652;28;45868;-70
2023/04/22 01:11:56;;;;;;;;;22.50;22.00;;;;;11.96;46.79;100170.88;5074350;28;45507;-65
2023/04/22 01:14:22;;;;;;;;;30.50;26.00;;;;;12.06;46.84;100190.00;5075224;28;45646;-66
2023/04/22 01:16:50;;;;;;;;;23.50;23.50;;;;;12.13;46.09;100196.06;5065519;28;45450;-65
2023/04/22 01:19:15;;;;;;;;;33.50;25.50;;;;;12.04;46.64;100176.03;5071551;28;45687;-66
2023/04/22 01:21:43;;;;;;;;;30.50;25.25;;;;;12.09;46.52;100182.94;5073666;28;45541;-65
2023/04/22 01:24:09;;;;;;;;;30.00;24.25;;;;;12.13;46.57;100175.91;5072261;28;45503;-65
2023/04/22 01:26:36;;;;;;;;;22.50;19.25;;;;;12.04;46.55;100178.66;5073222;28;46300;-68
2023/04/22 01:29:04;;;;;;;;;30.25;25.00;;;;;11.93;46.72;100175.28;5072155;27;45487;-69
2023/04/22 01:31:30;;;;;;;;;22.00;21.00;;;;;11.83;46.84;100159.63;5067768;27;45476;-65
2023/04/22 01:33:56;;;;;;;;;29.50;25.50;;;;;11.96;46.81;100168.25;5065527;28;45684;-68
2023/04/22 01:36:22;;;;;;;;;26.50;22.75;;;;;11.93;46.89;100167.41;5075477;27;46071;-69
2023/04/22 01:38:48;;;;;;;;;26.00;25.50;;;;;11.91;47.24;100170.03;5058954;27;45438;-67
2023/04/22 01:41:13;;;;;;;;;23.50;21.75;;;;;11.89;46.88;100166.59;5069555;28;45545;-70
2023/04/22 01:43:40;;;;;;;;;28.75;24.25;;;;;11.94;47.04;100170.03;5073425;28;45953;-72
2023/04/22 01:46:07;;;;;;;;;27.75;23.75;;;;;11.92;46.61;100165.69;5073121;28;46341;-68
2023/04/22 01:48:33;;;;;;;;;23.50;21.50;;;;;11.94;47.07;100162.16;5077646;28;45445;-69
2023/04/22 01:50:59;;;;;;;;;25.00;22.75;;;;;11.89;46.92;100156.09;5081175;27;45582;-66
2023/04/22 01:53:25;;;;;;;;;20.00;19.25;;;;;11.82;47.29;100149.16;5081221;27;45353;-70
2023/04/22 01:55:51;;;;;;;;;24.25;22.00;;;;;11.70;47.49;100115.19;5077726;28;45690;-65
2023/04/22 01:58:16;;;;;;;;;26.00;23.75;;;;;11.94;46.95;100154.28;5075970;27;45367;-66
2023/04/22 02:00:42;;;;;;;;;23.25;23.00;;;;;11.85;47.53;100133.38;5074743;28;45477;-68
2023/04/22 02:03:08;;;;;;;;;29.50;24.25;;;;;11.76;47.67;100134.34;5076563;28;45387;-66
2023/04/22 02:05:34;;;;;;;;;28.50;24.00;;;;;11.66;47.88;100128.34;5077943;28;46206;-66
2023/04/22 02:07:59;;;;;;;;;23.25;20.75;;;;;11.68;47.81;100105.59;5096599;27;45493;-65
2023/04/22 02:10:25;;;;;;;;;26.25;23.25;;;;;11.76;47.77;100104.63;5080994;27;46085;-68
2023/04/22 02:12:50;;;;;;;;;29.75;27.00;;;;;11.79;47.67;100113.34;5077800;28;45447;-64
2023/04/22 02:15:16;;;;;;;;;24.50;21.75;;;;;11.79;48.23;100118.59;5076306;28;46376;-66
2023/04/22 02:17:42;;;;;;;;;25.75;22.50;;;;;11.73;48.38;100131.78;5077833;27;45405;-65
2023/04/22 02:20:11;;;;;;;;;24.25;19.50;;;;;11.67;48.25;100114.38;5079353;27;45444;-64
2023/04/22 02:22:37;;;;;;;;;23.75;20.25;;;;;11.81;48.37;100114.16;5080929;28;45296;-65
2023/04/22 02:25:04;;;;;;;;;26.00;22.00;;;;;11.68;49.12;100109.97;5080266;28;46180;-65
2023/04/22 02:27:29;;;;;;;;;28.75;24.75;;;;;11.74;49.42;100137.88;5091714;27;45713;-64
2023/04/22 02:29:55;;;;;;;;;26.50;22.75;;;;;11.66;49.29;100124.88;5074914;28;45557;-69
2023/04/22 02:32:20;;;;;;;;;28.00;25.25;;;;;11.68;50.26;100136.22;5079327;28;45522;-65
2023/04/22 02:34:47;;;;;;;;;34.50;29.00;;;;;11.66;50.57;100130.97;5076163;28;46159;-66
2023/04/22 02:37:13;;;;;;;;;28.00;24.50;;;;;11.72;51.08;100132.66;5094205;27;45492;-72
2023/04/22 02:39:38;;;;;;;;;27.00;25.00;;;;;11.64;51.18;100121.38;5079936;27;45618;-69
2023/04/22 02:42:04;;;;;;;;;38.00;29.75;;;;;11.56;51.05;100108.38;5091939;27;45466;-66
2023/04/22 02:44:30;;;;;;;;;27.75;26.75;;;;;11.67;51.03;100134.47;5075239;27;45464;-64
2023/04/22 02:46:55;;;;;;;;;29.75;27.25;;;;;11.57;51.14;100133.69;5091951;27;45486;-69
2023/04/22 02:49:21;;;;;;;;;33.00;28.00;;;;;11.54;51.56;100131.13;5074337;28;45508;-65
2023/04/22 02:51:46;;;;;;;;;35.25;27.25;;;;;11.49;51.78;100125.06;5088162;27;45600;-66
2023/04/22 02:54:24;;;;;;;;;31.25;26.00;;;;;11.32;52.29;100120.00;5075738;28;45485;-72
2023/04/22 02:57:03;;;;;;;;;36.00;29.00;;;;;11.21;52.31;100098.28;5071392;28;45546;-67
2023/04/22 02:59:30;;;;;;;;;33.75;29.25;;;;;11.38;52.59;100126.94;5069232;28;45570;-66
2023/04/22 03:01:55;;;;;;;;;31.50;26.75;;;;;11.28;52.29;100107.81;5080613;27;45495;-69
2023/04/22 03:04:21;;;;;;;;;29.25;25.00;;;;;11.31;52.37;100109.53;5077211;28;46429;-65
2023/04/22 03:06:48;;;;;;;;;32.50;27.25;;;;;11.26;52.69;100104.34;5074806;27;45403;-67
2023/04/22 03:09:13;;;;;;;;;33.25;31.00;;;;;11.33;52.69;100090.28;5066219;28;45457;-66
2023/04/22 03:11:39;;;;;;;;;33.75;29.00;;;;;11.41;52.54;100090.19;5075779;28;45545;-67
2023/04/22 03:14:04;;;;;;;;;35.00;28.75;;;;;11.45;52.44;100097.13;5075866;28;45946;-65
2023/04/22 03:16:30;;;;;;;;;33.00;30.50;;;;;11.36;52.91;100092.84;5075896;28;45463;-65
2023/04/22 03:18:55;;;;;;;;;35.75;29.00;;;;;11.32;53.19;100085.94;5072191;27;45357;-65
2023/04/22 03:21:21;;;;;;;;;31.75;29.00;;;;;11.23;53.36;100067.69;5056698;28;45447;-65
2023/04/22 03:23:46;;;;;;;;;28.75;27.00;;;;;11.17;53.65;100067.75;5054386;27;45968;-66
2023/04/22 03:26:12;;;;;;;;;31.50;30.75;;;;;11.04;53.50;100038.19;5058204;27;45555;-64
2023/04/22 03:28:39;;;;;;;;;32.00;27.25;;;;;11.02;53.71;100030.34;5054654;27;45522;-65
2023/04/22 03:31:04;;;;;;;;;33.50;29.00;;;;;11.20;53.84;100058.09;5056521;27;45440;-64
2023/04/22 03:33:30;;;;;;;;;36.50;29.00;;;;;11.12;54.14;100052.06;5055628;28;45456;-65
2023/04/22 03:35:56;;;;;;;;;37.50;28.00;;;;;11.03;54.59;100052.16;5054764;27;45524;-66
2023/04/22 03:38:21;;;;;;;;;33.00;30.00;;;;;11.03;54.65;100054.78;5054814;27;45782;-64
2023/04/22 03:40:47;;;;;;;;;45.75;33.00;;;;;11.03;55.08;100062.63;5058764;27;45426;-65
2023/04/22 03:43:12;;;;;;;;;28.25;27.00;;;;;11.04;55.71;100069.63;5055681;28;47709;-66
2023/04/22 03:45:38;;;;;;;;;30.50;27.50;;;;;10.99;55.37;100072.31;5054438;27;45475;-65
2023/04/22 03:48:04;;;;;;;;;35.25;31.75;;;;;11.01;55.65;100074.91;5055611;27;45410;-64
2023/04/22 03:50:29;;;;;;;;;31.25;27.75;;;;;11.00;56.28;100068.78;5060566;27;45722;-69
2023/04/22 03:52:55;;;;;;;;;38.75;34.25;;;;;10.99;55.96;100069.69;5073986;27;47146;-66
2023/04/22 03:55:20;;;;;;;;;42.75;35.50;;;;;10.94;56.45;100063.63;5054335;27;45544;-65
2023/04/22 03:57:46;;;;;;;;;40.75;34.50;;;;;10.85;57.01;100037.50;5055339;28;45323;-67
2023/04/22 04:00:12;;;;;;;;;41.00;34.00;;;;;10.88;56.84;100021.75;5053151;27;45426;-68
2023/04/22 04:02:37;;;;;;;;;38.25;30.50;;;;;10.88;56.96;100010.41;5053410;27;48018;-65
2023/04/22 04:05:03;;;;;;;;;34.00;29.75;;;;;10.95;57.23;100046.16;5056880;27;45401;-64
2023/04/22 04:07:29;;;;;;;;;37.25;33.25;;;;;10.86;56.97;100062.81;5058264;27;45340;-67
2023/04/22 04:09:55;;;;;;;;;32.50;29.75;;;;;10.91;57.46;100068.88;5067680;28;45621;-69
2023/04/22 04:12:20;;;;;;;;;32.50;26.75;;;;;11.00;56.70;100054.81;5072983;28;46812;-64
2023/04/22 04:14:46;;;;;;;;;29.00;26.00;;;;;11.08;56.90;100039.00;5072619;28;45508;-64
2023/04/22 04:17:12;;;;;;;;;37.25;30.00;;;;;11.16;57.14;100029.31;5075674;28;45523;-66
2023/04/22 04:19:38;;;;;;;;;36.00;29.25;;;;;11.22;56.83;100010.88;5094321;27;45388;-63
2023/04/22 04:22:04;;;;;;;;;42.50;34.25;;;;;11.25;57.28;99995.13;5078129;27;46002;-66
2023/04/22 04:24:29;;;;;;;;;37.75;32.25;;;;;11.21;57.54;99962.84;5074359;28;45670;-64
2023/04/22 04:26:56;;;;;;;;;41.50;34.25;;;;;11.16;58.24;99963.78;5074413;28;45535;-64
2023/04/22 04:29:22;;;;;;;;;34.00;27.25;;;;;11.16;58.97;99988.25;5073284;27;46852;-67
2023/04/22 04:31:48;;;;;;;;;32.75;29.50;;;;;11.16;59.01;99982.16;5066736;28;46313;-66
2023/04/22 04:34:14;;;;;;;;;35.50;29.50;;;;;11.09;59.62;99997.06;5057657;27;45402;-66
2023/04/22 04:36:40;;;;;;;;;36.00;28.00;;;;;11.01;59.49;100001.53;5061092;27;45436;-66
2023/04/22 04:39:08;;;;;;;;;38.75;32.25;;;;;11.06;59.83;100036.44;5070116;28;45488;-65
2023/04/22 04:41:34;;;;;;;;;32.50;31.25;;;;;10.89;60.72;100028.75;5060753;28;46375;-64
2023/04/22 04:44:00;;;;;;;;;36.75;30.50;;;;;10.95;60.04;99998.97;5054392;28;45528;-65
2023/04/22 04:46:28;;;;;;;;;36.75;29.50;;;;;11.07;60.22;99974.38;5056562;27;45770;-67
2023/04/22 04:48:55;;;;;;;;;48.25;35.50;;;;;11.25;60.14;100000.38;5058734;27;45792;-64
2023/04/22 04:51:20;;;;;;;;;41.25;33.50;;;;;11.19;61.85;100010.94;5061352;27;45969;-64
2023/04/22 04:53:46;;;;;;;;;39.50;34.50;;;;;11.15;62.60;100023.22;5086112;27;45497;-68
2023/04/22 04:56:12;;;;;;;;;46.50;36.50;;;;;10.90;62.84;99998.16;5064649;27;45556;-68
2023/04/22 04:58:37;;;;;;;;;42.75;34.75;;;;;10.88;63.76;100002.56;5053779;28;45581;-64
2023/04/22 05:01:03;;;;;;;;;43.75;36.25;;;;;10.82;63.49;99953.72;5068202;27;45430;-66
2023/04/22 05:03:29;;;;;;;;;49.50;37.50;;;;;10.81;65.07;99973.78;5052726;27;45358;-66
2023/04/22 05:05:55;;;;;;;;;42.50;36.00;;;;;10.74;64.98;99961.66;5069447;27;45488;-69
2023/04/22 05:08:20;;;;;;;;;36.50;32.75;;;;;10.63;65.92;99973.13;5052903;27;45397;-64
2023/04/22 05:10:46;;;;;;;;;42.00;35.00;;;;;10.51;66.51;99935.75;5077879;28;45531;-65
2023/04/22 05:13:11;;;;;;;;;48.25;38.25;;;;;10.55;66.79;99955.75;5075588;28;45825;-63
2023/04/22 05:15:37;;;;;;;;;49.00;36.50;;;;;10.54;66.50;99964.50;5073558;28;45523;-64
2023/04/22 05:18:03;;;;;;;;;42.25;36.00;;;;;10.45;67.64;99987.28;5073570;28;45425;-65
2023/04/22 05:20:29;;;;;;;;;49.00;37.50;;;;;10.42;67.23;99996.03;5073278;28;45372;-66
2023/04/22 05:22:54;;;;;;;;;45.75;37.25;;;;;10.45;67.83;100016.09;5076521;28;45492;-69
2023/04/22 05:25:20;;;;;;;;;44.75;34.00;;;;;10.44;67.82;100003.84;5095621;27;45432;-64
2023/04/22 05:27:45;;;;;;;;;37.25;33.50;;;;;10.55;67.56;100028.19;5076081;27;45507;-68
2023/04/22 05:30:11;;;;;;;;;50.75;33.50;;;;;10.56;67.92;99999.41;5062760;28;45832;-67
2023/04/22 05:32:37;;;;;;;;;40.25;34.00;;;;;10.69;68.07;99994.88;5079534;28;45528;-64
2023/04/22 05:35:02;;;;;;;;;48.25;35.75;;;;;10.67;68.64;100004.50;5076869;28;45531;-68
2023/04/22 05:37:28;;;;;;;;;47.25;37.50;;;;;10.65;68.63;100021.13;5093500;27;45711;-64
2023/04/22 05:39:53;;;;;;;;;49.00;37.00;;;;;10.52;69.73;100023.88;5077353;27;46227;-68
2023/04/22 05:42:19;;;;;;;;;46.00;36.50;;;;;10.62;69.71;100045.59;5075287;28;45609;-69
2023/04/22 05:44:44;;;;;;;;;47.00;36.50;;;;;10.60;70.14;100050.81;5079867;27;45501;-65
2023/04/22 05:47:10;;;;;;;;;42.50;35.25;;;;;10.71;69.90;100068.22;5079951;28;45591;-70
2023/04/22 05:49:35;;;;;;;;;41.00;34.25;;;;;10.79;69.06;100053.28;5092504;27;47676;-65
2023/04/22 05:52:01;;;;;;;;;46.50;34.50;;;;;10.77;69.83;100036.72;5077354;27;45509;-65
2023/04/22 05:54:28;;;;;;;;;34.25;31.00;;;;;10.92;69.31;100010.38;5080897;28;45390;-67
2023/04/22 05:56:54;;;;;;;;;44.75;36.25;;;;;10.97;69.90;100013.81;5081321;28;45502;-64
2023/04/22 05:59:20;;;;;;;;;46.00;35.75;;;;;11.05;70.63;100034.66;5079632;28;47677;-64
2023/04/22 06:01:45;;;;;;;;;47.75;37.00;;;;;10.95;71.02;100015.56;5079913;28;45346;-67
2023/04/22 06:04:11;;;;;;;;;35.25;30.50;;;;;10.89;70.79;100022.63;5096337;27;45431;-65
2023/04/22 06:06:37;;;;;;;;;47.00;34.00;;;;;10.93;71.08;100038.28;5079874;28;45427;-64
2023/04/22 06:09:02;;;;;;;;;40.25;34.75;;;;;10.90;71.83;100034.84;5062305;28;46114;-65
2023/04/22 06:11:28;;;;;;;;;52.50;41.00;;;;;10.73;72.39;100024.56;5076684;28;45330;-67
2023/04/22 06:13:53;;;;;;;;;42.25;35.50;;;;;10.83;72.36;100041.91;5076463;27;45316;-66
2023/04/22 06:16:20;;;;;;;;;40.75;34.00;;;;;10.81;72.13;100041.03;5076502;27;45335;-65
2023/04/22 06:18:46;;;;;;;;;42.50;35.25;;;;;10.82;72.52;100027.06;5076065;28;45895;-69
2023/04/22 06:21:11;;;;;;;;;46.75;35.00;;;;;10.89;72.80;100043.56;5064776;27;45427;-64
2023/04/22 06:23:37;;;;;;;;;38.00;33.00;;;;;10.83;72.63;100027.03;5068929;27;45425;-65
2023/04/22 06:26:03;;;;;;;;;44.25;35.00;;;;;10.82;73.48;100035.81;5057145;27;45717;-64
2023/04/22 06:28:29;;;;;;;;;44.25;34.75;;;;;10.87;73.42;100058.44;5062122;27;47169;-66
2023/04/22 06:30:54;;;;;;;;;49.25;37.50;;;;;10.90;73.14;100061.91;5078746;27;45466;-66
2023/04/22 06:33:20;;;;;;;;;37.50;32.75;;;;;10.91;73.74;100060.16;5058974;27;45371;-70
2023/04/22 06:35:46;;;;;;;;;45.50;34.25;;;;;10.77;73.56;100055.94;5054666;27;45517;-69
2023/04/22 06:38:11;;;;;;;;;49.50;37.25;;;;;10.75;75.18;100060.31;5066028;27;47025;-68
2023/04/22 06:40:37;;;;;;;;;42.50;35.50;;;;;10.78;74.29;100049.81;5060937;27;45850;-65
2023/04/22 06:43:03;;;;;;;;;38.75;34.25;;;;;10.76;74.60;100059.44;5079786;27;45529;-64
2023/04/22 06:45:28;;;;;;;;;42.75;37.50;;;;;10.78;74.70;100064.66;5057501;27;45479;-65
2023/04/22 06:47:54;;;;;;;;;45.00;36.75;;;;;10.76;75.16;100069.03;5059515;27;46002;-67
2023/04/22 06:50:20;;;;;;;;;49.50;38.00;;;;;10.77;74.52;100055.94;5065270;27;46162;-67
2023/04/22 06:52:45;;;;;;;;;47.25;35.25;;;;;10.80;74.73;100044.56;5057322;27;45361;-64
2023/04/22 06:55:11;;;;;;;;;48.00;37.00;;;;;10.74;74.90;100032.38;5056404;27;45759;-72
2023/04/22 06:57:37;;;;;;;;;52.25;40.50;;;;;10.76;75.10;100058.56;5055501;27;45364;-72
2023/04/22 07:00:05;;;;;;;;;44.75;35.75;;;;;10.71;75.74;100042.88;5055057;27;45528;-68
2023/04/22 07:02:30;;;;;;;;;51.50;37.50;;;;;10.69;75.96;100035.94;5088073;27;45365;-70
2023/04/22 07:04:56;;;;;;;;;46.00;37.75;;;;;10.55;76.34;100013.34;5076337;27;45484;-70
2023/04/22 07:07:22;;;;;;;;;45.50;38.00;;;;;10.58;77.05;100036.00;5062579;27;46082;-68
2023/04/22 07:09:47;;;;;;;;;49.00;37.00;;;;;10.58;76.24;100036.00;5101223;27;45434;-70
2023/04/22 07:12:13;;;;;;;;;45.50;36.50;;;;;10.55;77.66;100036.91;5075764;28;45445;-71
2023/04/22 07:14:43;;;;;;;;;44.50;38.25;;;;;10.52;78.05;100043.94;5075744;28;45526;-68
2023/04/22 07:17:09;;;;;;;;;46.50;35.50;;;;;10.37;77.92;100035.34;5074830;27;46506;-69
2023/04/22 07:19:35;;;;;;;;;48.75;36.00;;;;;10.31;78.10;100039.75;5075446;27;45520;-66
2023/04/22 07:22:02;;;;;;;;;46.00;37.75;;;;;10.34;78.68;100031.88;5075062;27;45388;-68
2023/04/22 07:24:27;;;;;;;;;45.50;37.75;;;;;10.29;78.48;100026.66;5108413;27;45388;-71
2023/04/22 07:26:53;;;;;;;;;49.00;37.00;;;;;10.34;78.55;100027.50;5073893;28;47389;-66
2023/04/22 07:29:18;;;;;;;;;46.75;37.00;;;;;10.37;78.31;100034.47;5075113;28;45734;-70
2023/04/22 07:31:44;;;;;;;;;50.25;38.50;;;;;10.51;78.54;100048.31;5070707;28;45563;-70
2023/04/22 07:34:10;;;;;;;;;41.50;34.75;;;;;10.50;78.68;100024.75;5072560;28;45919;-67
2023/04/22 07:36:36;;;;;;;;;50.00;35.75;;;;;10.64;78.60;100033.34;5074725;28;46061;-66
2023/04/22 07:39:01;;;;;;;;;48.25;36.50;;;;;10.66;78.10;100020.25;5074567;28;45653;-71
2023/04/22 07:41:27;;;;;;;;;44.75;35.25;;;;;10.83;78.03;100057.63;5075422;28;45402;-65
2023/04/22 07:43:52;;;;;;;;;42.50;36.50;;;;;10.80;78.26;100031.47;5074527;27;45835;-72
2023/04/22 07:46:19;;;;;;;;;48.00;37.50;;;;;10.90;78.24;100038.34;5072891;27;45405;-64
2023/04/22 07:48:44;;;;;;;;;50.50;36.25;;;;;10.96;77.66;100037.38;5074851;28;45998;-65
2023/04/22 07:51:10;;;;;;;;;38.75;34.00;;;;;10.94;78.10;100020.81;5077476;27;45298;-69
2023/04/22 07:53:35;;;;;;;;;49.00;37.25;;;;;10.94;78.01;100029.56;5076330;28;45638;-65
2023/04/22 07:56:01;;;;;;;;;45.50;37.75;;;;;10.90;77.90;100013.88;5075691;28;46414;-66
2023/04/22 07:58:27;;;;;;;;;45.75;35.50;;;;;10.93;78.49;100032.19;5074027;28;45471;-74
2023/04/22 08:00:52;;;;;;;;;50.00;37.25;;;;;10.95;78.59;100033.91;5089855;27;45478;-65
2023/04/22 08:03:18;;;;;;;;;47.75;38.25;;;;;10.88;79.01;100016.50;5073466;27;45339;-66
2023/04/22 08:05:44;;;;;;;;;53.75;38.25;;;;;10.73;79.59;99996.59;5078775;28;45844;-64
2023/04/22 08:08:11;;;;;;;;;45.75;35.25;;;;;10.91;79.37;100034.81;5066097;28;45428;-65
2023/04/22 08:10:37;;;;;;;;;46.75;37.25;;;;;11.01;79.06;100033.84;5070851;28;45342;-65
2023/04/22 08:13:03;;;;;;;;;44.25;35.75;;;;;11.02;79.59;100038.19;5066004;28;45553;-65
2023/04/22 08:15:29;;;;;;;;;48.25;38.00;;;;;11.04;79.80;100039.06;5078454;28;45321;-67
2023/04/22 08:17:55;;;;;;;;;47.25;35.25;;;;;11.02;80.07;100032.94;5077413;28;45334;-66
2023/04/22 08:20:20;;;;;;;;;48.25;36.75;;;;;10.99;80.02;100032.13;5076267;27;45610;-65
2023/04/22 08:22:46;;;;;;;;;42.50;34.75;;;;;11.13;80.03;100032.84;5074463;28;45394;-65
2023/04/22 08:25:11;;;;;;;;;40.75;34.50;;;;;11.28;78.92;100054.53;5074568;27;46602;-63
2023/04/22 08:27:37;;;;;;;;;42.25;33.25;;;;;11.27;80.40;100060.63;5107406;27;45441;-65
2023/04/22 08:30:05;;;;;;;;;44.25;35.75;;;;;11.25;80.54;100055.44;5078483;28;45390;-64
2023/04/22 08:32:30;;;;;;;;;39.25;33.50;;;;;11.31;80.13;100055.34;5078962;27;45390;-66
2023/04/22 08:34:56;;;;;;;;;38.00;34.00;;;;;11.23;81.02;100050.19;5078474;28;46144;-69
2023/04/22 08:37:21;;;;;;;;;42.00;34.50;;;;;11.32;81.83;100051.84;5076467;27;45458;-68
2023/04/22 08:39:47;;;;;;;;;43.75;32.75;;;;;11.38;81.12;100050.91;5074480;27;45464;-64
2023/04/22 08:42:14;;;;;;;;;40.00;34.25;;;;;11.41;80.88;100040.34;5074852;28;45414;-68
2023/04/22 08:44:40;;;;;;;;;41.50;35.50;;;;;11.39;81.82;100042.13;5072967;28;46488;-70
2023/04/22 08:47:07;;;;;;;;;50.25;38.50;;;;;11.34;81.34;100043.94;5090810;27;45435;-70
2023/04/22 08:49:35;;;;;;;;;49.00;35.25;;;;;11.39;81.84;100040.41;5078657;28;45477;-70
2023/04/22 08:52:00;;;;;;;;;46.00;35.25;;;;;11.44;81.53;100043.81;5091184;27;45673;-68
2023/04/22 08:54:26;;;;;;;;;37.00;33.00;;;;;11.60;81.84;100059.34;5078910;28;46578;-72
2023/04/22 08:56:52;;;;;;;;;44.25;34.00;;;;;11.58;82.44;100041.03;5078395;28;45438;-71
2023/04/22 08:59:21;;;;;;;;;47.75;35.75;;;;;11.72;81.90;100061.84;5075166;28;45432;-72
2023/04/22 09:01:51;;;;;;;;;48.50;36.50;;;;;11.79;82.51;100055.63;5075414;28;45329;-70
2023/04/22 09:04:17;;;;;;;;;35.25;28.25;;;;;11.86;83.03;100067.75;5110762;27;47194;-68
2023/04/22 09:06:43;;;;;;;;;32.50;28.25;;;;;11.87;82.96;100048.53;5077193;28;45260;-69
2023/04/22 09:09:09;;;;;;;;;36.75;29.00;;;;;11.91;84.62;100043.22;5060257;28;45592;-66
2023/04/22 09:11:35;;;;;;;;;34.25;28.50;;;;;12.06;83.65;100057.00;5067855;28;45500;-64
2023/04/22 09:14:02;;;;;;;;;22.25;20.50;;;;;12.13;84.66;100063.03;5072849;28;48122;-64
2023/04/22 09:16:32;;;;;;;;;32.00;27.50;;;;;12.15;84.88;100057.72;5078079;28;45283;-65
2023/04/22 09:18:58;;;;;;;;;30.00;26.00;;;;;12.21;84.11;100062.91;5078864;27;45519;-65
2023/04/22 09:21:26;;;;;;;;;32.75;26.50;;;;;12.22;83.92;100052.38;5078590;27;45535;-65
2023/04/22 09:23:53;;;;;;;;;23.75;22.50;;;;;12.39;84.32;100067.00;5091089;27;45821;-65
2023/04/22 09:26:20;;;;;;;;;27.00;23.50;;;;;12.44;83.17;100062.56;5073920;28;45527;-65
2023/04/22 09:28:54;;;;;;;;;24.00;18.50;;;;;12.57;82.26;100068.44;5078924;28;45383;-70
2023/04/22 09:31:21;;;;;;;;;24.00;21.25;;;;;12.66;82.01;100066.53;5076667;28;45769;-66
2023/04/22 09:33:59;;;;;;;;;28.25;21.25;;;;;12.74;82.04;100079.53;5088929;27;46866;-66
2023/04/22 09:36:26;;;;;;;;;24.75;21.50;;;;;12.84;81.71;100085.53;5076673;28;45573;-65
2023/04/22 09:39:00;;;;;;;;;27.25;21.75;;;;;12.83;80.81;100078.50;5064260;28;45321;-66
2023/04/22 09:41:31;;;;;;;;;24.50;21.00;;;;;12.98;81.67;100096.66;5060664;28;45449;-69
2023/04/22 09:43:58;;;;;;;;;26.25;23.00;;;;;12.99;81.46;100095.75;5068183;28;46053;-68
2023/04/22 09:46:25;;;;;;;;;25.00;19.50;;;;;13.02;82.04;100100.94;5080126;27;45391;-66
2023/04/22 09:48:55;;;;;;;;;23.25;22.75;;;;;13.00;82.07;100089.56;5091277;27;45472;-65
2023/04/22 09:51:21;;;;;;;;;25.25;22.75;;;;;13.09;81.76;100110.44;5086804;27;45368;-65
2023/04/22 09:54:00;;;;;;;;;20.50;20.50;;;;;13.14;81.44;100113.88;5071970;28;45566;-65
2023/04/22 09:56:52;;;;;;;;;18.50;17.75;;;;;13.15;81.49;100120.88;5072673;28;45560;-72
2023/04/22 09:59:27;;;;;;;;;22.75;18.00;;;;;13.21;80.75;100114.63;5069672;28;45662;-71
2023/04/22 10:01:58;;;;;;;;;19.25;16.75;;;;;13.33;80.19;100131.97;5073586;27;45421;-65
2023/04/22 10:04:24;;;;;;;;;19.00;18.25;;;;;13.32;80.36;100111.81;5074248;28;45388;-69
2023/04/22 10:06:52;;;;;;;;;20.50;18.50;;;;;13.55;79.99;100138.56;5069181;27;45553;-65
2023/04/22 10:09:24;;;;;;;;;19.50;17.00;;;;;13.63;79.21;100140.16;5068322;28;45599;-70
2023/04/22 10:11:52;;;;;;;;;21.50;17.00;;;;;13.71;78.56;100125.94;5108327;27;45489;-66
2023/04/22 10:14:20;;;;;;;;;21.75;15.00;;;;;13.79;77.78;100128.44;5080315;27;45682;-66
2023/04/22 10:16:46;;;;;;;;;17.00;14.25;;;;;13.72;77.47;100121.56;5080788;28;45492;-69
2023/04/22 10:19:23;;;;;;;;;19.25;17.25;;;;;13.78;77.69;100135.44;5081462;28;45413;-66
2023/04/22 10:21:54;;;;;;;;;18.75;16.75;;;;;13.68;77.69;100123.38;5078239;28;45835;-65
2023/04/22 10:24:20;;;;;;;;;17.50;14.75;;;;;13.79;78.55;100133.69;5076164;27;46164;-66
2023/04/22 10:26:58;;;;;;;;;15.75;15.25;;;;;13.83;78.48;100130.06;5079465;28;45415;-64
2023/04/22 10:29:26;;;;;;;;;13.75;12.00;;;;;13.87;77.75;100121.22;5080889;27;45379;-69
2023/04/22 10:32:17;;;;;;;;;18.25;17.25;;;;;13.93;77.29;100136.91;5079384;27;45860;-70
2023/04/22 10:34:47;;;;;;;;;16.50;13.00;;;;;14.00;75.81;100141.13;5080682;27;46845;-67
2023/04/22 10:37:17;;;;;;;;;11.50;10.25;;;;;14.15;75.46;100153.09;5078581;27;45567;-71
2023/04/22 10:40:14;;;;;;;;;16.00;12.50;;;;;14.24;74.69;100153.78;5058809;27;45382;-75
2023/04/22 10:42:44;;;;;;;;;11.25;11.25;;;;;14.23;74.00;100134.47;5064230;28;45561;-71
2023/04/22 10:45:14;;;;;;;;;16.25;13.25;;;;;14.33;73.35;100154.47;5092343;27;45448;-66
2023/04/22 10:47:40;;;;;;;;;14.75;14.00;;;;;14.30;73.62;100157.16;5076218;27;45887;-69
2023/04/22 10:50:26;;;;;;;;;18.50;14.50;;;;;14.32;73.08;100151.84;5092004;27;45463;-70
2023/04/22 10:52:56;;;;;;;;;18.75;15.75;;;;;14.40;72.35;100160.44;5079741;27;45440;-67
2023/04/22 10:55:23;;;;;;;;;17.00;15.25;;;;;14.47;71.89;100176.97;5076401;27;45382;-69
2023/04/22 10:57:50;;;;;;;;;18.00;15.75;;;;;14.48;72.01;100178.72;5062213;27;45416;-69
2023/04/22 11:00:20;;;;;;;;;20.25;15.00;;;;;14.48;72.16;100186.63;5075889;28;45461;-70
2023/04/22 11:03:05;;;;;;;;;15.00;13.75;;;;;14.54;70.46;100178.59;5092224;27;45590;-70
2023/04/22 11:05:31;;;;;;;;;23.00;17.00;;;;;14.46;70.20;100170.84;5091804;27;45528;-73
2023/04/22 11:08:07;;;;;;;;;20.25;18.50;;;;;14.47;70.15;100195.41;5075837;27;45595;-75